Time;durP1;ratioP1;P1;durP2;ratioP2;P2;SDS_P1;SDS_P2;PMS_P1;PMS_P2;Temp;Humidity;BMP_temperature;BMP_pressure;BME280_temperature;BME280_humidity;BME280_pressure;Samples;Min_cycle;Max_cycle;Signal;HPM_P1;HPM_P2
2024/01/29 00:00:01;;;;;;;8.52;7.20;;;;;;;;;;4949173;28;20094;-75
2024/01/29 00:02:35;;;;;;;8.95;6.45;;;;;;;;;;4949862;28;20043;-74
2024/01/29 00:05:02;;;;;;;7.30;6.60;;;;;;;;;;4949678;28;20063;-74
2024/01/29 00:07:29;;;;;;;6.10;5.60;;;;;;;;;;4947465;29;20070;-73
2024/01/29 00:09:56;;;;;;;5.57;5.07;;;;;;;;;;4948245;29;20066;-73
2024/01/29 00:12:22;;;;;;;4.97;4.55;;;;;;;;;;4948922;29;20066;-75
2024/01/29 00:14:49;;;;;;;6.35;5.75;;;;;;;;;;4949127;28;20513;-74
2024/01/29 00:17:15;;;;;;;7.07;6.47;;;;;;;;;;4948962;29;20031;-74
2024/01/29 00:19:42;;;;;;;7.03;6.32;;;;;;;;;;4949996;28;20545;-75
2024/01/29 00:22:08;;;;;;;5.95;5.45;;;;;;;;;;4949610;29;20480;-73
2024/01/29 00:24:34;;;;;;;7.30;6.60;;;;;;;;;;4933840;29;20654;-74
2024/01/29 00:27:00;;;;;;;6.30;5.60;;;;;;;;;;4949324;29;20031;-74
2024/01/29 00:29:26;;;;;;;6.22;5.63;;;;;;;;;;4950004;28;20032;-74
2024/01/29 00:31:51;;;;;;;6.68;6.07;;;;;;;;;;4948374;29;20039;-76
2024/01/29 00:34:17;;;;;;;8.20;6.95;;;;;;;;;;4948691;29;20023;-75
2024/01/29 00:36:43;;;;;;;7.82;7.10;;;;;;;;;;4949626;28;20043;-75
2024/01/29 00:39:09;;;;;;;7.18;6.53;;;;;;;;;;4950592;28;20097;-76
2024/01/29 00:41:35;;;;;;;6.97;5.82;;;;;;;;;;4948146;29;20047;-74
2024/01/29 00:44:02;;;;;;;12.57;5.60;;;;;;;;;;4950089;28;20498;-74
2024/01/29 00:46:28;;;;;;;7.10;6.40;;;;;;;;;;4950331;28;20039;-75
2024/01/29 00:48:53;;;;;;;7.55;6.85;;;;;;;;;;4949573;28;20107;-74
2024/01/29 00:51:20;;;;;;;6.43;5.82;;;;;;;;;;4949248;28;20089;-74
2024/01/29 00:53:47;;;;;;;6.35;5.75;;;;;;;;;;4929856;29;20040;-75
2024/01/29 00:56:13;;;;;;;5.05;4.60;;;;;;;;;;4948445;29;20039;-75
2024/01/29 00:58:43;;;;;;;6.53;5.93;;;;;;;;;;4949653;28;20074;-74
2024/01/29 01:01:09;;;;;;;6.22;5.63;;;;;;;;;;4933461;29;20447;-73
2024/01/29 01:03:35;;;;;;;7.22;6.25;;;;;;;;;;4944079;29;20030;-73
2024/01/29 01:06:00;;;;;;;7.25;6.50;;;;;;;;;;4953098;29;20031;-74
2024/01/29 01:08:26;;;;;;;7.05;6.45;;;;;;;;;;4949890;28;20118;-73
2024/01/29 01:10:52;;;;;;;5.85;5.35;;;;;;;;;;4948753;28;20122;-74
2024/01/29 01:13:18;;;;;;;4.82;4.43;;;;;;;;;;4947897;29;20045;-74
2024/01/29 01:15:44;;;;;;;6.65;6.00;;;;;;;;;;4947689;29;20031;-74
2024/01/29 01:18:10;;;;;;;6.55;5.95;;;;;;;;;;4950034;28;20490;-73
2024/01/29 01:20:35;;;;;;;7.50;6.72;;;;;;;;;;4948970;28;20598;-73
2024/01/29 01:23:01;;;;;;;8.80;7.90;;;;;;;;;;4948365;28;20050;-74
2024/01/29 01:25:27;;;;;;;7.65;5.60;;;;;;;;;;4947511;29;20453;-73
2024/01/29 01:27:53;;;;;;;5.35;4.40;;;;;;;;;;4950553;28;20707;-74
2024/01/29 01:30:20;;;;;;;5.78;5.25;;;;;;;;;;4954129;28;20114;-73
2024/01/29 01:32:46;;;;;;;6.90;6.22;;;;;;;;;;4952700;28;20509;-74
2024/01/29 01:35:12;;;;;;;7.68;5.50;;;;;;;;;;4953220;28;20167;-74
2024/01/29 01:37:37;;;;;;;8.55;7.20;;;;;;;;;;4951616;29;20031;-74
2024/01/29 01:40:04;;;;;;;8.75;7.28;;;;;;;;;;4945193;29;20030;-74
2024/01/29 01:42:30;;;;;;;4.80;4.40;;;;;;;;;;4952275;28;20047;-73
2024/01/29 01:44:56;;;;;;;7.90;6.38;;;;;;;;;;4950964;29;20028;-75
2024/01/29 01:47:22;;;;;;;7.30;6.40;;;;;;;;;;4936611;29;20035;-73
2024/01/29 01:49:48;;;;;;;8.95;6.97;;;;;;;;;;4950985;29;20126;-74
2024/01/29 01:52:15;;;;;;;6.93;6.15;;;;;;;;;;4951342;29;20035;-74
2024/01/29 01:54:41;;;;;;;8.25;6.72;;;;;;;;;;4952650;29;20039;-75
2024/01/29 01:57:07;;;;;;;7.50;6.70;;;;;;;;;;4919995;29;20536;-74
2024/01/29 01:59:33;;;;;;;8.55;6.97;;;;;;;;;;4953322;28;20114;-74
2024/01/29 02:01:59;;;;;;;9.43;8.52;;;;;;;;;;4951671;29;20043;-74
2024/01/29 02:04:25;;;;;;;6.82;6.13;;;;;;;;;;4952187;28;20184;-73
2024/01/29 02:06:51;;;;;;;7.28;6.10;;;;;;;;;;4953090;28;20042;-74
2024/01/29 02:09:17;;;;;;;6.38;5.63;;;;;;;;;;4957680;29;20031;-73
2024/01/29 02:11:43;;;;;;;7.57;6.05;;;;;;;;;;4966313;29;20050;-73
2024/01/29 02:14:10;;;;;;;8.02;7.32;;;;;;;;;;4960583;28;20493;-75
2024/01/29 02:16:36;;;;;;;7.93;5.97;;;;;;;;;;4953373;28;20043;-74
2024/01/29 02:19:03;;;;;;;7.18;6.53;;;;;;;;;;4941045;29;20035;-76
2024/01/29 02:21:29;;;;;;;7.30;6.70;;;;;;;;;;4940673;29;20071;-74
2024/01/29 02:23:55;;;;;;;7.22;5.93;;;;;;;;;;4950434;29;20077;-73
2024/01/29 02:26:20;;;;;;;5.35;4.85;;;;;;;;;;4951631;29;20050;-75
2024/01/29 02:28:46;;;;;;;6.05;5.47;;;;;;;;;;4951968;28;20122;-74
2024/01/29 02:31:13;;;;;;;8.63;6.50;;;;;;;;;;4951119;28;20037;-74
2024/01/29 02:33:38;;;;;;;6.97;5.75;;;;;;;;;;4951152;28;20039;-75
2024/01/29 02:36:04;;;;;;;8.85;5.80;;;;;;;;;;4949714;29;20039;-74
2024/01/29 02:38:30;;;;;;;5.60;4.97;;;;;;;;;;4952889;28;20043;-74
2024/01/29 02:40:56;;;;;;;6.45;5.85;;;;;;;;;;4951440;28;20089;-74
2024/01/29 02:43:21;;;;;;;5.80;5.20;;;;;;;;;;4931758;29;20039;-73
2024/01/29 02:45:49;;;;;;;7.30;5.95;;;;;;;;;;4948257;29;20364;-74
2024/01/29 02:48:14;;;;;;;6.38;5.70;;;;;;;;;;4950397;29;20106;-74
2024/01/29 02:50:40;;;;;;;6.78;5.70;;;;;;;;;;4952013;28;20039;-72
2024/01/29 02:53:06;;;;;;;5.43;4.35;;;;;;;;;;4957968;29;20199;-73
2024/01/29 02:55:32;;;;;;;7.63;6.38;;;;;;;;;;4953310;29;20031;-74
2024/01/29 02:57:58;;;;;;;6.43;5.53;;;;;;;;;;4951401;28;20058;-74
2024/01/29 03:00:24;;;;;;;6.78;5.30;;;;;;;;;;4934112;29;20506;-74
2024/01/29 03:02:50;;;;;;;5.05;4.68;;;;;;;;;;4950170;29;20047;-74
2024/01/29 03:05:16;;;;;;;6.70;5.65;;;;;;;;;;4952187;28;20031;-74
2024/01/29 03:07:41;;;;;;;6.60;5.78;;;;;;;;;;4949538;29;20062;-74
2024/01/29 03:10:07;;;;;;;7.00;6.40;;;;;;;;;;4926686;29;20123;-76
2024/01/29 03:12:33;;;;;;;8.40;7.18;;;;;;;;;;4946770;29;20050;-73
2024/01/29 03:14:59;;;;;;;6.57;5.88;;;;;;;;;;4942725;29;20036;-74
2024/01/29 03:17:25;;;;;;;4.28;3.88;;;;;;;;;;4952685;28;20034;-75
2024/01/29 03:19:50;;;;;;;11.25;7.65;;;;;;;;;;4949083;29;20027;-74
2024/01/29 03:22:16;;;;;;;7.90;6.45;;;;;;;;;;4948339;28;20102;-74
2024/01/29 03:24:42;;;;;;;10.18;7.30;;;;;;;;;;4952221;28;20126;-74
2024/01/29 03:27:08;;;;;;;6.13;5.53;;;;;;;;;;4933607;29;20041;-74
2024/01/29 03:29:33;;;;;;;10.20;6.47;;;;;;;;;;4949803;28;20038;-75
2024/01/29 03:31:59;;;;;;;4.50;4.18;;;;;;;;;;4954961;29;20061;-73
2024/01/29 03:34:25;;;;;;;6.07;5.15;;;;;;;;;;4960525;29;20090;-73
2024/01/29 03:36:51;;;;;;;7.57;6.72;;;;;;;;;;4958563;28;20039;-73
2024/01/29 03:39:16;;;;;;;7.07;6.15;;;;;;;;;;4955891;29;20038;-73
2024/01/29 03:41:42;;;;;;;6.88;6.18;;;;;;;;;;4962124;29;20062;-73
2024/01/29 03:44:08;;;;;;;6.35;5.80;;;;;;;;;;4961015;29;20098;-74
2024/01/29 03:46:34;;;;;;;6.43;5.78;;;;;;;;;;4959365;29;20062;-74
2024/01/29 03:49:00;;;;;;;8.23;7.47;;;;;;;;;;4934679;29;20564;-73
2024/01/29 03:51:26;;;;;;;7.20;5.97;;;;;;;;;;4946597;29;20086;-74
2024/01/29 03:53:51;;;;;;;10.38;7.38;;;;;;;;;;4951444;28;20034;-73
2024/01/29 03:56:17;;;;;;;8.02;5.82;;;;;;;;;;4948628;28;20417;-73
2024/01/29 03:58:43;;;;;;;10.88;6.18;;;;;;;;;;4949745;29;20042;-73
2024/01/29 04:01:09;;;;;;;6.93;6.22;;;;;;;;;;4951325;28;20047;-74
2024/01/29 04:03:35;;;;;;;9.05;6.93;;;;;;;;;;4950431;28;20603;-74
2024/01/29 04:06:02;;;;;;;10.80;7.47;;;;;;;;;;4929968;29;20035;-74
2024/01/29 04:08:28;;;;;;;7.93;7.22;;;;;;;;;;4948808;29;20031;-73
2024/01/29 04:10:53;;;;;;;8.52;7.25;;;;;;;;;;4926178;29;20433;-73
2024/01/29 04:13:20;;;;;;;6.85;6.03;;;;;;;;;;4950152;29;20525;-73
2024/01/29 04:15:46;;;;;;;7.32;6.53;;;;;;;;;;4950108;28;20058;-73
2024/01/29 04:18:13;;;;;;;8.68;7.68;;;;;;;;;;4950272;28;20062;-74
2024/01/29 04:20:38;;;;;;;9.55;8.25;;;;;;;;;;4950445;28;20071;-74
2024/01/29 04:23:04;;;;;;;12.23;7.88;;;;;;;;;;4951986;29;20049;-74
2024/01/29 04:25:30;;;;;;;10.43;9.00;;;;;;;;;;4950672;29;20035;-74
2024/01/29 04:27:56;;;;;;;9.32;7.45;;;;;;;;;;4952020;29;20130;-74
2024/01/29 04:30:22;;;;;;;6.93;6.10;;;;;;;;;;4952092;28;20046;-74
2024/01/29 04:32:47;;;;;;;8.80;7.22;;;;;;;;;;4951988;28;20473;-73
2024/01/29 04:35:13;;;;;;;19.27;7.45;;;;;;;;;;4950138;29;20118;-73
2024/01/29 04:37:41;;;;;;;9.30;6.95;;;;;;;;;;4949975;29;20070;-74
2024/01/29 04:40:07;;;;;;;7.03;6.32;;;;;;;;;;4952342;28;20110;-76
2024/01/29 04:42:33;;;;;;;9.50;7.28;;;;;;;;;;4954685;28;20513;-75
2024/01/29 04:44:59;;;;;;;10.73;7.30;;;;;;;;;;4932256;29;20067;-74
2024/01/29 04:47:26;;;;;;;13.60;9.70;;;;;;;;;;4931463;29;20039;-74
2024/01/29 04:49:51;;;;;;;9.88;7.78;;;;;;;;;;4933258;29;20089;-74
2024/01/29 04:52:17;;;;;;;8.98;7.85;;;;;;;;;;4932860;29;20040;-74
2024/01/29 04:54:43;;;;;;;13.60;8.55;;;;;;;;;;4951805;28;20173;-74
2024/01/29 04:57:09;;;;;;;10.23;8.20;;;;;;;;;;4952262;28;20449;-74
2024/01/29 04:59:34;;;;;;;5.05;4.63;;;;;;;;;;4935122;29;20530;-74
2024/01/29 05:02:00;;;;;;;11.43;6.65;;;;;;;;;;4968405;29;20043;-73
2024/01/29 05:04:26;;;;;;;8.20;6.35;;;;;;;;;;4942657;29;20513;-74
2024/01/29 05:06:52;;;;;;;13.57;8.75;;;;;;;;;;4951581;29;20051;-73
2024/01/29 05:09:19;;;;;;;8.40;7.55;;;;;;;;;;4950228;29;20498;-74
2024/01/29 05:11:45;;;;;;;10.57;8.18;;;;;;;;;;4951151;28;20048;-74
2024/01/29 05:14:10;;;;;;;12.68;7.80;;;;;;;;;;4949990;29;20031;-76
2024/01/29 05:16:36;;;;;;;8.95;5.75;;;;;;;;;;4952311;29;20043;-75
2024/01/29 05:19:02;;;;;;;7.43;6.72;;;;;;;;;;4949593;29;20428;-75
2024/01/29 05:21:28;;;;;;;4.75;4.10;;;;;;;;;;4949749;29;20050;-73
2024/01/29 05:23:54;;;;;;;7.40;6.25;;;;;;;;;;4945917;28;20027;-70
2024/01/29 05:26:20;;;;;;;7.15;6.45;;;;;;;;;;4949595;28;20208;-70
2024/01/29 05:28:45;;;;;;;6.75;6.15;;;;;;;;;;4949688;29;20067;-71
2024/01/29 05:31:11;;;;;;;8.63;7.70;;;;;;;;;;4949850;29;20094;-71
2024/01/29 05:33:37;;;;;;;7.07;5.63;;;;;;;;;;4946403;29;20141;-70
2024/01/29 05:36:03;;;;;;;10.32;7.95;;;;;;;;;;4948829;29;20043;-71
2024/01/29 05:38:31;;;;;;;9.60;8.30;;;;;;;;;;4949124;29;20108;-71
2024/01/29 05:40:57;;;;;;;7.03;6.43;;;;;;;;;;4948424;28;20050;-72
2024/01/29 05:43:22;;;;;;;5.68;5.18;;;;;;;;;;4949356;29;20419;-72
2024/01/29 05:45:48;;;;;;;7.55;6.82;;;;;;;;;;4949848;28;20490;-72
2024/01/29 05:48:14;;;;;;;6.68;6.07;;;;;;;;;;4949267;28;20043;-72
2024/01/29 05:50:40;;;;;;;9.45;8.45;;;;;;;;;;4945885;28;20160;-71
2024/01/29 05:53:07;;;;;;;8.05;6.50;;;;;;;;;;4948586;28;20557;-71
2024/01/29 05:55:32;;;;;;;11.18;9.30;;;;;;;;;;4953942;28;20047;-70
2024/01/29 05:57:58;;;;;;;9.40;8.10;;;;;;;;;;4968485;28;20409;-70
2024/01/29 06:00:24;;;;;;;13.32;9.13;;;;;;;;;;4948174;28;20055;-71
2024/01/29 06:02:50;;;;;;;6.22;5.63;;;;;;;;;;4949302;29;20050;-71
2024/01/29 06:05:16;;;;;;;10.68;7.03;;;;;;;;;;4949874;28;20070;-70
2024/01/29 06:07:42;;;;;;;8.40;7.45;;;;;;;;;;4949615;29;20394;-71
2024/01/29 06:10:08;;;;;;;10.25;8.27;;;;;;;;;;4964362;28;20501;-71
2024/01/29 06:12:35;;;;;;;7.00;6.22;;;;;;;;;;4950763;28;20506;-72
2024/01/29 06:15:01;;;;;;;6.75;5.75;;;;;;;;;;4968304;28;20132;-72
2024/01/29 06:17:31;;;;;;;8.30;6.97;;;;;;;;;;4952252;29;20222;-73
2024/01/29 06:19:56;;;;;;;6.50;5.47;;;;;;;;;;4952588;28;20046;-71
2024/01/29 06:22:22;;;;;;;9.10;7.13;;;;;;;;;;4952863;28;20044;-71
2024/01/29 06:24:48;;;;;;;11.45;10.00;;;;;;;;;;4951318;29;20490;-71
2024/01/29 06:27:14;;;;;;;6.82;6.10;;;;;;;;;;4952074;28;20077;-71
2024/01/29 06:29:40;;;;;;;7.93;6.90;;;;;;;;;;4935887;29;20131;-71
2024/01/29 06:32:05;;;;;;;6.53;5.90;;;;;;;;;;4953350;28;20039;-71
2024/01/29 06:34:33;;;;;;;10.07;7.78;;;;;;;;;;4952582;28;20046;-71
2024/01/29 06:36:59;;;;;;;7.00;6.32;;;;;;;;;;4967065;28;20078;-71
2024/01/29 06:39:25;;;;;;;8.93;7.45;;;;;;;;;;4960021;28;20039;-71
2024/01/29 06:41:51;;;;;;;7.85;6.25;;;;;;;;;;4949996;28;20059;-70
2024/01/29 06:44:16;;;;;;;8.85;5.53;;;;;;;;;;4952172;29;20458;-70
2024/01/29 06:46:42;;;;;;;6.50;5.28;;;;;;;;;;4952175;28;20035;-69
2024/01/29 06:49:08;;;;;;;12.02;9.40;;;;;;;;;;4950649;29;20031;-69
2024/01/29 06:51:34;;;;;;;7.57;6.78;;;;;;;;;;4952266;28;20062;-70
2024/01/29 06:54:03;;;;;;;7.53;6.78;;;;;;;;;;4950780;29;20043;-70
2024/01/29 06:56:29;;;;;;;9.85;8.85;;;;;;;;;;4943259;28;20046;-70
2024/01/29 06:58:55;;;;;;;8.38;7.57;;;;;;;;;;4923301;29;20044;-71
2024/01/29 07:01:21;;;;;;;12.02;9.57;;;;;;;;;;4947498;28;20057;-69
2024/01/29 07:03:47;;;;;;;6.57;5.88;;;;;;;;;;4970314;28;20042;-71
2024/01/29 07:06:13;;;;;;;10.20;7.35;;;;;;;;;;4949371;28;20878;-70
2024/01/29 07:08:39;;;;;;;6.93;6.13;;;;;;;;;;4949518;29;20065;-70
2024/01/29 07:11:05;;;;;;;10.82;8.00;;;;;;;;;;4951349;28;20031;-70
2024/01/29 07:13:31;;;;;;;4.90;4.50;;;;;;;;;;4951904;29;20474;-72
2024/01/29 07:15:58;;;;;;;10.45;8.82;;;;;;;;;;4950225;28;20115;-72
2024/01/29 07:18:24;;;;;;;6.70;6.13;;;;;;;;;;4904660;29;20181;-71
2024/01/29 07:20:50;;;;;;;7.55;6.00;;;;;;;;;;4952006;28;20125;-71
2024/01/29 07:23:16;;;;;;;5.30;4.90;;;;;;;;;;4949909;29;20031;-71
2024/01/29 07:25:42;;;;;;;7.88;6.57;;;;;;;;;;4950750;28;20039;-70
2024/01/29 07:28:08;;;;;;;6.18;5.63;;;;;;;;;;4950979;28;20529;-71
2024/01/29 07:30:34;;;;;;;10.75;8.75;;;;;;;;;;4949570;28;20039;-71
2024/01/29 07:33:00;;;;;;;9.95;8.85;;;;;;;;;;4955915;28;20611;-71
2024/01/29 07:35:26;;;;;;;9.48;8.27;;;;;;;;;;4950020;29;20576;-71
2024/01/29 07:37:52;;;;;;;9.93;8.90;;;;;;;;;;4953612;28;20512;-71
2024/01/29 07:40:19;;;;;;;8.00;7.30;;;;;;;;;;4966506;28;20032;-71
2024/01/29 07:42:45;;;;;;;7.18;6.57;;;;;;;;;;4947544;28;20062;-72
2024/01/29 07:45:11;;;;;;;9.85;8.32;;;;;;;;;;4931078;29;20054;-72
2024/01/29 07:47:37;;;;;;;11.57;7.75;;;;;;;;;;4931948;29;20532;-72
2024/01/29 07:50:03;;;;;;;9.52;6.45;;;;;;;;;;4941367;29;20114;-72
2024/01/29 07:52:30;;;;;;;7.25;6.55;;;;;;;;;;4961713;28;20077;-72
2024/01/29 07:54:56;;;;;;;6.13;5.43;;;;;;;;;;4960004;28;20031;-72
2024/01/29 07:57:23;;;;;;;9.50;8.32;;;;;;;;;;4953834;28;20039;-73
2024/01/29 07:59:49;;;;;;;9.63;8.02;;;;;;;;;;4952343;28;20051;-71
2024/01/29 08:02:16;;;;;;;9.88;7.22;;;;;;;;;;4949316;28;20105;-72
2024/01/29 08:04:42;;;;;;;5.68;5.13;;;;;;;;;;4950239;28;20042;-72
2024/01/29 08:07:08;;;;;;;3.45;3.25;;;;;;;;;;4930985;29;20043;-71
2024/01/29 08:09:34;;;;;;;8.95;6.13;;;;;;;;;;4949974;29;20042;-71
2024/01/29 08:12:05;;;;;;;9.13;7.28;;;;;;;;;;4949842;28;20046;-70
2024/01/29 08:14:31;;;;;;;7.20;6.53;;;;;;;;;;4934064;29;20031;-71
2024/01/29 08:16:57;;;;;;;7.97;6.82;;;;;;;;;;4943305;29;20710;-71
2024/01/29 08:19:22;;;;;;;11.63;9.38;;;;;;;;;;4942173;28;20042;-71
2024/01/29 08:21:48;;;;;;;7.75;6.60;;;;;;;;;;4945037;28;20055;-70
2024/01/29 08:24:14;;;;;;;9.88;8.93;;;;;;;;;;4944820;28;20043;-71
2024/01/29 08:26:40;;;;;;;9.05;7.78;;;;;;;;;;4951258;28;20133;-73
2024/01/29 08:29:06;;;;;;;8.52;7.25;;;;;;;;;;4951267;28;20637;-72
2024/01/29 08:31:32;;;;;;;8.73;8.02;;;;;;;;;;4949101;29;20101;-71
2024/01/29 08:34:00;;;;;;;11.65;8.98;;;;;;;;;;4950953;28;20038;-72
2024/01/29 08:36:26;;;;;;;6.78;5.75;;;;;;;;;;4937574;29;20035;-73
2024/01/29 08:38:51;;;;;;;9.05;7.63;;;;;;;;;;4951013;28;20038;-72
2024/01/29 08:41:17;;;;;;;15.32;11.32;;;;;;;;;;4949208;28;20533;-71
2024/01/29 08:43:43;;;;;;;10.15;8.05;;;;;;;;;;4945417;29;20524;-71
2024/01/29 08:46:10;;;;;;;14.20;10.60;;;;;;;;;;4946769;28;20039;-72
2024/01/29 08:48:36;;;;;;;8.00;7.18;;;;;;;;;;4938719;28;20087;-71
2024/01/29 08:51:02;;;;;;;11.88;8.90;;;;;;;;;;4949207;29;20031;-71
2024/01/29 08:53:28;;;;;;;13.43;12.05;;;;;;;;;;4949825;28;20039;-71
2024/01/29 08:55:54;;;;;;;11.80;8.82;;;;;;;;;;4933026;29;20046;-71
2024/01/29 08:58:20;;;;;;;8.38;7.10;;;;;;;;;;4932813;28;20098;-71
2024/01/29 09:00:49;;;;;;;12.48;11.23;;;;;;;;;;4948660;28;20502;-71
2024/01/29 09:03:14;;;;;;;7.43;6.72;;;;;;;;;;4950290;28;20039;-72
2024/01/29 09:05:42;;;;;;;13.05;7.85;;;;;;;;;;4952076;28;20027;-72
2024/01/29 09:08:07;;;;;;;8.20;7.40;;;;;;;;;;4948447;28;20039;-70
2024/01/29 09:10:33;;;;;;;9.23;6.95;;;;;;;;;;4950280;28;20034;-71
2024/01/29 09:12:59;;;;;;;10.52;9.23;;;;;;;;;;4929883;28;20087;-71
2024/01/29 09:15:25;;;;;;;11.43;8.10;;;;;;;;;;4949079;28;20433;-71
2024/01/29 09:17:51;;;;;;;12.35;7.78;;;;;;;;;;4937720;28;20557;-71
2024/01/29 09:20:16;;;;;;;7.90;7.15;;;;;;;;;;4950387;29;20509;-71
2024/01/29 09:22:42;;;;;;;11.30;8.18;;;;;;;;;;4950787;28;20031;-72
2024/01/29 09:25:08;;;;;;;6.38;5.82;;;;;;;;;;4950488;28;20094;-71
2024/01/29 09:27:34;;;;;;;12.13;10.32;;;;;;;;;;4950109;28;20046;-71
2024/01/29 09:30:02;;;;;;;7.75;6.97;;;;;;;;;;4950217;28;20023;-71
2024/01/29 09:32:30;;;;;;;8.15;7.47;;;;;;;;;;4949711;28;20132;-71
2024/01/29 09:34:56;;;;;;;12.07;10.88;;;;;;;;;;4948958;28;20094;-71
2024/01/29 09:37:22;;;;;;;15.05;9.52;;;;;;;;;;4949720;28;20047;-71
2024/01/29 09:39:48;;;;;;;9.65;8.70;;;;;;;;;;4948913;28;20031;-71
2024/01/29 09:42:17;;;;;;;9.20;6.45;;;;;;;;;;4948184;28;20455;-71
2024/01/29 09:44:43;;;;;;;10.38;8.80;;;;;;;;;;4950055;28;20145;-71
2024/01/29 09:47:09;;;;;;;10.02;7.40;;;;;;;;;;4944659;28;20662;-71
2024/01/29 09:49:37;;;;;;;9.57;8.40;;;;;;;;;;4925642;29;20038;-72
2024/01/29 09:52:04;;;;;;;7.13;6.30;;;;;;;;;;4951946;28;20506;-70
2024/01/29 09:54:33;;;;;;;7.38;6.65;;;;;;;;;;4953377;28;20057;-71
2024/01/29 09:56:59;;;;;;;7.40;5.80;;;;;;;;;;4953693;28;20042;-71
2024/01/29 09:59:25;;;;;;;9.68;7.05;;;;;;;;;;4953288;28;20058;-72
2024/01/29 10:01:51;;;;;;;7.20;6.60;;;;;;;;;;4952241;28;20557;-72
2024/01/29 10:04:18;;;;;;;10.45;7.20;;;;;;;;;;4952255;29;20035;-71
2024/01/29 10:06:44;;;;;;;6.50;5.38;;;;;;;;;;4952132;28;20045;-72
2024/01/29 10:09:11;;;;;;;8.43;7.63;;;;;;;;;;4953513;28;20505;-71
2024/01/29 10:11:39;;;;;;;6.72;5.93;;;;;;;;;;4954914;28;20047;-72
2024/01/29 10:14:05;;;;;;;9.23;8.35;;;;;;;;;;4954230;28;20035;-71
2024/01/29 10:16:31;;;;;;;7.28;6.68;;;;;;;;;;4952729;28;20043;-72
2024/01/29 10:18:59;;;;;;;7.18;6.53;;;;;;;;;;4948699;29;20042;-71
2024/01/29 10:21:25;;;;;;;7.25;6.57;;;;;;;;;;4942563;28;20074;-71
2024/01/29 10:23:55;;;;;;;8.30;6.93;;;;;;;;;;4932706;29;20071;-71
2024/01/29 10:26:21;;;;;;;7.00;5.80;;;;;;;;;;4949303;28;20130;-71
2024/01/29 10:28:47;;;;;;;5.93;5.45;;;;;;;;;;4953482;28;20027;-71
2024/01/29 10:31:42;;;;;;;7.25;6.65;;;;;;;;;;4953189;28;20035;-72
2024/01/29 10:34:08;;;;;;;6.22;5.63;;;;;;;;;;4924607;28;20043;-71
2024/01/29 10:36:35;;;;;;;6.15;5.65;;;;;;;;;;4953118;28;20039;-72
2024/01/29 10:39:03;;;;;;;8.27;7.15;;;;;;;;;;4951613;29;20035;-71
2024/01/29 10:41:32;;;;;;;8.02;7.22;;;;;;;;;;4953367;28;20047;-71
2024/01/29 10:43:58;;;;;;;7.35;6.75;;;;;;;;;;4935945;28;20086;-72
2024/01/29 10:46:25;;;;;;;7.25;6.65;;;;;;;;;;4961197;29;20038;-72
2024/01/29 10:48:51;;;;;;;6.28;5.78;;;;;;;;;;4955775;28;20074;-71
2024/01/29 10:51:17;;;;;;;7.05;6.38;;;;;;;;;;4943424;28;20035;-71
2024/01/29 10:53:44;;;;;;;7.70;6.90;;;;;;;;;;4953305;28;20043;-71
2024/01/29 10:56:10;;;;;;;5.65;4.97;;;;;;;;;;4953340;28;20524;-71
2024/01/29 10:58:36;;;;;;;9.55;8.43;;;;;;;;;;4952089;28;20173;-72
2024/01/29 11:01:03;;;;;;;6.78;6.13;;;;;;;;;;4950356;28;20079;-71
2024/01/29 11:03:29;;;;;;;7.50;6.80;;;;;;;;;;4950825;28;20050;-72
2024/01/29 11:06:15;;;;;;;6.95;5.88;;;;;;;;;;4952387;28;20524;-71
2024/01/29 11:08:42;;;;;;;8.65;7.85;;;;;;;;;;4944733;29;20033;-72
2024/01/29 11:11:08;;;;;;;6.63;6.00;;;;;;;;;;4935116;29;20109;-71
2024/01/29 11:13:34;;;;;;;8.23;6.97;;;;;;;;;;4931339;29;20042;-72
2024/01/29 11:16:00;;;;;;;8.95;8.13;;;;;;;;;;4943040;29;20442;-71
2024/01/29 11:18:30;;;;;;;10.93;9.50;;;;;;;;;;4932000;29;20584;-72
2024/01/29 11:20:56;;;;;;;9.03;7.43;;;;;;;;;;4940511;29;20048;-72
2024/01/29 11:23:22;;;;;;;9.10;8.20;;;;;;;;;;4950970;28;20065;-71
2024/01/29 11:25:51;;;;;;;6.22;5.47;;;;;;;;;;4952209;28;20042;-72
2024/01/29 11:28:17;;;;;;;7.32;6.63;;;;;;;;;;4950631;28;20061;-71
2024/01/29 11:30:55;;;;;;;8.85;7.72;;;;;;;;;;4952266;28;20039;-71
2024/01/29 11:33:21;;;;;;;8.45;6.60;;;;;;;;;;4939402;29;20099;-72
2024/01/29 11:35:50;;;;;;;9.88;8.90;;;;;;;;;;4917489;28;20134;-71
2024/01/29 11:38:20;;;;;;;12.90;6.65;;;;;;;;;;4951826;28;20276;-72
2024/01/29 11:40:46;;;;;;;7.50;6.65;;;;;;;;;;4950105;28;20081;-72
2024/01/29 11:43:12;;;;;;;6.25;5.65;;;;;;;;;;4950313;28;20509;-71
2024/01/29 11:45:38;;;;;;;6.82;6.22;;;;;;;;;;4952094;29;20038;-72
2024/01/29 11:48:08;;;;;;;9.18;8.27;;;;;;;;;;4950877;29;20035;-71
2024/01/29 11:50:34;;;;;;;9.55;8.63;;;;;;;;;;4935958;28;20485;-72
2024/01/29 11:53:00;;;;;;;6.30;5.80;;;;;;;;;;4941352;29;20043;-72
2024/01/29 11:55:28;;;;;;;6.20;5.70;;;;;;;;;;4948954;28;20031;-72
2024/01/29 11:57:54;;;;;;;8.35;7.53;;;;;;;;;;4941001;29;20498;-72
2024/01/29 12:00:20;;;;;;;9.40;7.95;;;;;;;;;;4950724;28;20177;-72
2024/01/29 12:02:48;;;;;;;9.85;8.05;;;;;;;;;;4953701;28;20051;-70
2024/01/29 12:05:17;;;;;;;7.68;6.90;;;;;;;;;;4952230;28;20038;-72
2024/01/29 12:07:47;;;;;;;10.57;9.20;;;;;;;;;;4951658;28;20043;-71
2024/01/29 12:10:13;;;;;;;10.55;8.65;;;;;;;;;;4951280;28;20115;-70
2024/01/29 12:12:39;;;;;;;8.20;7.40;;;;;;;;;;4950956;28;20099;-72
2024/01/29 12:15:06;;;;;;;7.72;6.93;;;;;;;;;;4950023;28;20042;-72
2024/01/29 12:17:32;;;;;;;7.70;6.90;;;;;;;;;;4949795;29;20478;-71
2024/01/29 12:19:58;;;;;;;10.30;8.30;;;;;;;;;;4945186;28;20046;-72
2024/01/29 12:22:26;;;;;;;11.27;10.20;;;;;;;;;;4929001;29;20047;-71
2024/01/29 12:24:53;;;;;;;5.80;5.30;;;;;;;;;;4951014;28;20082;-72
2024/01/29 12:27:18;;;;;;;10.50;8.95;;;;;;;;;;4950909;28;20050;-71
2024/01/29 12:29:45;;;;;;;6.25;5.68;;;;;;;;;;4949327;29;20067;-71
2024/01/29 12:32:11;;;;;;;6.78;6.15;;;;;;;;;;4950547;28;20043;-72
2024/01/29 12:34:47;;;;;;;7.38;6.72;;;;;;;;;;4950604;28;20103;-72
2024/01/29 12:37:21;;;;;;;14.68;6.45;;;;;;;;;;4950752;28;20454;-72
2024/01/29 12:39:51;;;;;;;10.25;6.47;;;;;;;;;;4950391;28;20032;-72
2024/01/29 12:42:17;;;;;;;8.18;7.38;;;;;;;;;;4949344;29;20097;-72
2024/01/29 12:44:43;;;;;;;10.77;8.52;;;;;;;;;;4933478;29;20505;-72
2024/01/29 12:47:12;;;;;;;9.98;8.57;;;;;;;;;;4949319;28;20391;-70
2024/01/29 12:49:38;;;;;;;4.88;4.53;;;;;;;;;;4943943;28;20035;-71
2024/01/29 12:52:04;;;;;;;8.20;7.40;;;;;;;;;;4937418;28;20047;-72
2024/01/29 12:54:30;;;;;;;9.80;5.85;;;;;;;;;;4948801;28;20561;-72
2024/01/29 12:56:56;;;;;;;8.75;7.50;;;;;;;;;;4950798;28;20049;-72
2024/01/29 12:59:22;;;;;;;8.25;7.45;;;;;;;;;;4948614;28;20418;-71
2024/01/29 13:01:48;;;;;;;6.70;5.88;;;;;;;;;;4950258;28;20105;-71
2024/01/29 13:04:13;;;;;;;9.48;8.48;;;;;;;;;;4950238;28;20032;-71
2024/01/29 13:06:39;;;;;;;7.32;6.47;;;;;;;;;;4949126;28;20047;-71
2024/01/29 13:09:05;;;;;;;6.32;5.75;;;;;;;;;;4950348;28;20035;-72
2024/01/29 13:11:31;;;;;;;8.30;6.43;;;;;;;;;;4948695;28;20093;-72
2024/01/29 13:13:59;;;;;;;6.95;5.55;;;;;;;;;;4949293;28;20441;-71
2024/01/29 13:16:25;;;;;;;6.97;6.25;;;;;;;;;;4950173;28;20043;-72
2024/01/29 13:18:52;;;;;;;5.75;5.25;;;;;;;;;;4946968;29;20031;-72
2024/01/29 13:21:19;;;;;;;6.20;5.60;;;;;;;;;;4935114;28;20051;-71
2024/01/29 13:23:47;;;;;;;6.82;6.20;;;;;;;;;;4951697;28;20038;-71
2024/01/29 13:26:13;;;;;;;8.35;7.55;;;;;;;;;;4937843;28;20530;-72
2024/01/29 13:28:39;;;;;;;8.77;7.68;;;;;;;;;;4954349;28;20453;-71
2024/01/29 13:31:05;;;;;;;7.65;6.90;;;;;;;;;;4954349;29;20039;-71
2024/01/29 13:33:31;;;;;;;11.70;10.55;;;;;;;;;;4954268;28;20031;-72
2024/01/29 13:36:00;;;;;;;13.25;8.73;;;;;;;;;;4955235;28;20399;-72
2024/01/29 13:38:26;;;;;;;8.75;7.30;;;;;;;;;;4967042;28;20027;-72
2024/01/29 13:40:52;;;;;;;9.55;8.55;;;;;;;;;;4964289;28;20494;-72
2024/01/29 13:43:18;;;;;;;7.25;6.22;;;;;;;;;;4962272;28;20094;-71
2024/01/29 13:45:46;;;;;;;7.10;6.05;;;;;;;;;;4954325;28;20486;-72
2024/01/29 13:48:11;;;;;;;9.27;7.28;;;;;;;;;;4945083;29;20035;-71
2024/01/29 13:50:37;;;;;;;10.98;6.72;;;;;;;;;;4942934;29;20062;-72
2024/01/29 13:53:03;;;;;;;11.30;6.78;;;;;;;;;;4946062;28;20047;-72
2024/01/29 13:55:30;;;;;;;7.97;7.22;;;;;;;;;;4954343;28;20035;-73
2024/01/29 13:57:56;;;;;;;7.20;6.47;;;;;;;;;;4953018;28;20081;-71
2024/01/29 14:00:22;;;;;;;6.72;6.05;;;;;;;;;;4952542;28;20047;-72
2024/01/29 14:02:48;;;;;;;12.25;9.10;;;;;;;;;;4953554;29;20058;-72
2024/01/29 14:05:14;;;;;;;10.82;7.60;;;;;;;;;;4953794;28;20054;-72
2024/01/29 14:07:40;;;;;;;10.95;7.60;;;;;;;;;;4952215;29;20047;-72
2024/01/29 14:10:06;;;;;;;5.50;5.10;;;;;;;;;;4953844;28;20062;-71
2024/01/29 14:12:32;;;;;;;8.30;7.60;;;;;;;;;;4952581;28;20512;-72
2024/01/29 14:15:03;;;;;;;8.25;7.40;;;;;;;;;;4952606;29;20038;-71
2024/01/29 14:17:31;;;;;;;6.97;6.28;;;;;;;;;;4952362;29;20043;-70
2024/01/29 14:19:57;;;;;;;7.60;6.80;;;;;;;;;;4949918;28;20034;-72
2024/01/29 14:22:23;;;;;;;6.13;5.63;;;;;;;;;;4940307;28;20090;-72
2024/01/29 14:24:49;;;;;;;7.30;6.65;;;;;;;;;;4920065;29;20031;-72
2024/01/29 14:27:15;;;;;;;7.93;7.22;;;;;;;;;;4951664;28;20035;-72
2024/01/29 14:29:41;;;;;;;6.85;6.22;;;;;;;;;;4956903;28;20506;-71
2024/01/29 14:32:08;;;;;;;5.50;5.05;;;;;;;;;;4958896;28;20039;-71
2024/01/29 14:34:34;;;;;;;13.07;9.10;;;;;;;;;;4958246;28;20502;-71